Killeen, Texas
Current Conditions -  °F | °C
As of 12:56 PM on Friday 24 Oct 2014 (Local Time) from KHLR Reporting Station
Clear Clear  
Wind Chill: 83°   Ceiling: Unl
Heat Index: 83°   Visibility: 10mi
Dew Point: 60°   Wind: 6mph
Humidity: 46%   Direction: 140°SE
Pressure: 30.16"   Gusts: NA
Location:  31.12°N, 97.73°W
Report Text: KHLR 241756Z AUTO 14005KT 10SM CLR 28/16 A3016 RMK AO2 SLP235 T02830156 10283 20161 58008 PWINO $
Loading
Personal Weather Stations






























Interactive Weather Map
Tropical Storm Tracking
New forecast layout! Learn more

10-Day Weather Forecast

Advertisements
Track Severe Weather on mobile